Meadow, TX (79345)

5:05 AM CDT on August 21, 2014 (GMT -0500)
WT_Meso Brownfield 2S | Change Station
CLOSE
Current Station
Personal Weather Station
Location: Brownfield, TX
Elevation: 3313 ft
Nearby Weather Stations

Elev 3313 ft 33.15 °N, 102.27 °W | Updated 40 minutes ago

Mostly Cloudy
Mostly Cloudy
71 °F
Feels Like 72 °F
N
10
Wind Variable Wind from SSE
Gusts 11.0 mph

Today
High -- | Low -- °F
--% Chance of Precip.
Yesterday
High -- | Low -- °F
Precip. -- in
7:16 AM 8:28 PM
Waning Crescent, 15% visible
Pressure 29.81 in
Visibility 10.0 miles
Clouds Few 15000 ft
Scattered Clouds 26000 ft
Mostly Cloudy 30000 ft
Heat Index 72 °F
Dew Point 64 °F
Humidity 80%
Rainfall -999.00 in
Snow Depth Not available.
UV 0 out of 12
Pollen 7.30 out of 12
Air Quality Not available.
Flu Activity Not available.
METAR KLBB 210953Z 18011KT 10SM FEW150 SCT260 BKN300 24/16 A2999 RMK AO2 SLP094 T02390161

More Conditions Fewer Conditions

Pressure 29.81 in
Visibility 10.0 miles
Clouds Few 15000 ft
Scattered Clouds 26000 ft
Mostly Cloudy 30000 ft
Heat Index 72 °F
Dew Point 64 °F
Humidity 80%
Rainfall -999.00 in
Snow Depth Not available.
UV 0 out of 12
Pollen 7.30 out of 12
Air Quality Not available.
Flu Activity Not available.
METAR KLBB 210953Z 18011KT 10SM FEW150 SCT260 BKN300 24/16 A2999 RMK AO2 SLP094 T02390161

More Conditions Fewer Conditions

10-Day Weather Forecast

Almanac

Astronomy

Aug. 21, 2014 Rise Set
Actual Time 7:16 AM CDT 8:28 PM CDT
Civil Twilight 6:50 AM CDT 8:53 PM CDT
Nautical Twilight 6:19 AM CDT 9:24 PM CDT
Astronomical Twilight 5:47 AM CDT 9:56 PM CDT
Moon 3:53 AM CDT 5:54 PM CDT
Length of Visible Light 14h 03m
Length of Day
13h 12m
Tomorrow will be 1m 52s shorter.
Waning Crescent, 15% of the Moon is Illuminated
Today
Waning Crescent
Aug 25
New
Sep 2
First Quarter
Sep 8
Full
Sep 15
Last Quarter

Today's Extremes

State Highs State Lows

Community

WunderPhotos

Upload Photos

1,745,871 photos uploaded!

Nearby

Snow Depth

Station Depth Elevation
No new snow has been reported.

Earthquake Activity

City Distance Mag. Time & Date
No recent earthquake activity has been reported nearby.
Minimum magnitude displayed is 2.5.

Coastal Water Temperatures

Place Temperature
No Stations Reporting

Nearby Weather Stations